createdAt,value
2016-04-13T00:02:38.930Z,1003.51
2016-04-13T00:05:50.173Z,1003.41
2016-04-13T00:08:53.857Z,1003.37
2016-04-13T00:12:06.522Z,1003.32
2016-04-13T00:15:16.467Z,1003.17
2016-04-13T00:18:29.041Z,1003.15
2016-04-13T00:21:41.643Z,1003.07
2016-04-13T00:24:53.963Z,1003.13
2016-04-13T00:28:06.377Z,1003.23
2016-04-13T00:31:19.041Z,1003.07
2016-04-13T00:34:31.052Z,1002.93
2016-04-13T00:37:41.467Z,1002.86
2016-04-13T00:40:53.741Z,1002.89
2016-04-13T00:44:06.280Z,1003.01
2016-04-13T00:47:18.570Z,1002.97
2016-04-13T00:50:31.049Z,1002.86
2016-04-13T00:53:47.541Z,1002.88
2016-04-13T00:56:55.299Z,1002.84
2016-04-13T00:59:58.854Z,1002.8
2016-04-13T01:03:11.456Z,1002.89
2016-04-13T01:06:21.417Z,1002.95
2016-04-13T01:09:32.491Z,1002.86
2016-04-13T01:12:42.003Z,1002.95
2016-04-13T01:15:54.401Z,1002.89
2016-04-13T01:19:06.643Z,1002.88
2016-04-13T01:22:19.390Z,1002.78
2016-04-13T01:25:29.494Z,1002.86
2016-04-13T01:28:42.033Z,1002.88
2016-04-13T01:31:53.526Z,1002.82
2016-04-13T01:35:07.096Z,1002.68
2016-04-13T01:38:17.589Z,1002.72
2016-04-13T01:41:30.162Z,1002.72
2016-04-13T01:44:42.812Z,1002.66
2016-04-13T01:47:55.585Z,1002.54
2016-04-13T01:51:05.983Z,1002.54
2016-04-13T01:54:16.132Z,1002.54
2016-04-13T01:57:25.549Z,1002.62
2016-04-13T02:00:38.010Z,1002.52
2016-04-13T02:03:51.985Z,1002.56
2016-04-13T02:06:55.721Z,1002.62
2016-04-13T02:10:08.431Z,1002.58
2016-04-13T02:13:18.226Z,1002.56
2016-04-13T02:16:30.071Z,1002.5
2016-04-13T02:19:40.440Z,1002.52
2016-04-13T02:22:54.387Z,1002.52
2016-04-13T02:25:58.193Z,1002.56
2016-04-13T02:29:10.279Z,1002.64
2016-04-13T02:32:22.725Z,1002.52
2016-04-13T02:35:31.892Z,1002.56
2016-04-13T02:38:41.947Z,1002.46
2016-04-13T02:41:54.361Z,1002.38
2016-04-13T02:45:03.571Z,1002.32
2016-04-13T02:48:14.033Z,1002.26
2016-04-13T02:51:26.529Z,1002.26
2016-04-13T02:54:38.833Z,1002.24
2016-04-13T02:57:55.309Z,1002.28
2016-04-13T03:00:58.850Z,1002.28
2016-04-13T03:04:07.608Z,1002.26
2016-04-13T03:07:16.225Z,1002.22
2016-04-13T03:10:24.921Z,1002.16
2016-04-13T03:13:37.009Z,1002.18
2016-04-13T03:16:53.190Z,1002.14
2016-04-13T03:19:56.776Z,1002.22
2016-04-13T03:23:07.924Z,1002.3
2016-04-13T03:26:20.354Z,1002.34
2016-04-13T03:29:32.709Z,1002.34
2016-04-13T03:32:49.029Z,1002.4
2016-04-13T03:35:56.584Z,1002.34
2016-04-13T03:39:00.233Z,1002.4
2016-04-13T03:42:11.855Z,1002.44
2016-04-13T03:45:25.644Z,1002.38
2016-04-13T03:48:37.984Z,1002.38
2016-04-13T03:51:54.242Z,1002.44
2016-04-13T03:54:57.875Z,1002.3
2016-04-13T03:58:10.304Z,1002.32
2016-04-13T04:01:22.703Z,1002.34
2016-04-13T04:04:35.183Z,1002.5
2016-04-13T04:07:52.019Z,1002.54
2016-04-13T04:10:55.433Z,1002.54
2016-04-13T04:14:07.833Z,1002.52
2016-04-13T04:17:20.449Z,1002.6
2016-04-13T04:20:33.007Z,1002.7
2016-04-13T04:23:43.046Z,1002.64
2016-04-13T04:26:55.523Z,1002.56
2016-04-13T04:30:05.281Z,1002.58
2016-04-13T04:33:17.790Z,1002.52
2016-04-13T04:36:30.375Z,1002.44
2016-04-13T04:39:39.949Z,1002.54
2016-04-13T04:42:56.051Z,1002.44
2016-04-13T04:45:59.637Z,1002.4
2016-04-13T04:49:15.848Z,1002.3
2016-04-13T04:52:24.106Z,1002.4
2016-04-13T04:55:36.695Z,1002.36
2016-04-13T04:58:49.719Z,1002.4
2016-04-13T05:01:52.273Z,1002.16
2016-04-13T05:05:05.984Z,1002.2
2016-04-13T05:08:17.789Z,1002.12
2016-04-13T05:11:30.408Z,1002.16
2016-04-13T05:14:43.152Z,1002.1
2016-04-13T05:17:55.613Z,1002
2016-04-13T05:21:08.215Z,1001.98
2016-04-13T05:24:19.270Z,1001.98
2016-04-13T05:27:29.560Z,1001.96
2016-04-13T05:30:42.258Z,1001.88
2016-04-13T05:33:54.798Z,1001.92
2016-04-13T05:37:05.524Z,1001.84
2016-04-13T05:40:18.142Z,1001.82
2016-04-13T05:43:30.915Z,1001.84
2016-04-13T05:46:41.269Z,1001.78
2016-04-13T05:49:53.965Z,1001.86
2016-04-13T05:53:06.473Z,1002.04
2016-04-13T05:56:17.590Z,1002.04
2016-04-13T05:59:28.099Z,1002.18
2016-04-13T06:02:38.000Z,1002.12
2016-04-13T06:05:54.634Z,1002.12
2016-04-13T06:08:58.423Z,1002.1
2016-04-13T06:12:10.744Z,1001.98
2016-04-13T06:15:23.141Z,1001.92
2016-04-13T06:18:33.415Z,1001.94
2016-04-13T06:21:49.957Z,1001.94
2016-04-13T06:24:53.856Z,1001.94
2016-04-13T06:28:05.240Z,1001.96
2016-04-13T06:31:18.826Z,1001.78
2016-04-13T06:34:28.145Z,1001.76
2016-04-13T06:37:40.657Z,1001.72
2016-04-13T06:40:54.322Z,1001.72
2016-04-13T06:43:58.250Z,1001.7
2016-04-13T06:47:10.916Z,1001.62
2016-04-13T06:50:23.298Z,1001.6
2016-04-13T06:53:36.090Z,1001.72
2016-04-13T06:56:52.130Z,1001.64
2016-04-13T06:59:56.373Z,1001.62
2016-04-13T07:03:07.849Z,1001.35
2016-04-13T07:06:21.904Z,1001.13
2016-04-13T07:09:35.724Z,1001.15
2016-04-13T07:12:54.594Z,1001.13
2016-04-13T07:15:58.744Z,1001.09
2016-04-13T07:19:12.549Z,1001.07
2016-04-13T07:22:26.510Z,1000.95
2016-04-13T07:25:40.255Z,1000.83
2016-04-13T07:28:54.904Z,1000.53
2016-04-13T07:32:07.114Z,1000.55
2016-04-13T07:35:22.700Z,1000.49
2016-04-13T07:38:37.524Z,1000.45
2016-04-13T07:41:53.673Z,1000.35
2016-04-13T07:45:09.586Z,1000.13
2016-04-13T07:48:23.454Z,999.91
2016-04-13T07:51:36.872Z,999.69
2016-04-13T07:54:56.770Z,999.79
2016-04-13T07:58:04.418Z,999.81
2016-04-13T08:01:20.552Z,999.83
2016-04-13T08:04:36.513Z,999.75
2016-04-13T08:07:55.976Z,999.68
2016-04-13T08:11:02.005Z,999.56
2016-04-13T08:14:14.045Z,999.64
2016-04-13T08:17:28.928Z,999.5
2016-04-13T08:20:43.376Z,999.5
2016-04-13T08:23:58.353Z,999.38
2016-04-13T08:27:11.893Z,999.48
2016-04-13T08:30:26.541Z,999.56
2016-04-13T08:33:41.442Z,999.46
2016-04-13T08:36:56.232Z,999.46
2016-04-13T08:40:09.880Z,999.85
2016-04-13T08:43:23.560Z,1000.49
2016-04-13T08:46:36.724Z,1000.61
2016-04-13T08:49:53.689Z,1000.73
2016-04-13T08:52:58.055Z,1000.75
2016-04-13T08:56:08.533Z,999.54
2016-04-13T08:59:23.057Z,1000.43
2016-04-13T09:02:34.674Z,999.52
2016-04-13T09:05:53.419Z,999.26
2016-04-13T09:08:59.895Z,999.24
2016-04-13T09:12:12.903Z,1000.11
2016-04-13T09:15:27.959Z,1000.03
2016-04-13T09:18:42.750Z,999.81
2016-04-13T09:21:55.884Z,999.14
2016-04-13T09:25:07.688Z,999.24
2016-04-13T09:28:20.635Z,999.04
2016-04-13T09:31:35.580Z,999.02
2016-04-13T09:34:54.450Z,999.08
2016-04-13T09:38:00.927Z,999.26
2016-04-13T09:41:14.388Z,999.18
2016-04-13T09:44:27.239Z,999.12
2016-04-13T09:47:42.125Z,999.2
2016-04-13T09:50:57.025Z,999.26
2016-04-13T09:54:08.525Z,999.42
2016-04-13T09:57:22.332Z,999.75
2016-04-13T10:00:36.114Z,1000.25
2016-04-13T10:03:51.797Z,1000.55
2016-04-13T10:06:56.590Z,1000.73
2016-04-13T10:10:09.911Z,1000.77
2016-04-13T10:13:22.497Z,1000.81
2016-04-13T10:16:34.036Z,1000.79
2016-04-13T10:19:52.767Z,1000.77
2016-04-13T10:22:59.213Z,1000.81
2016-04-13T10:26:10.736Z,1000.85
2016-04-13T10:29:25.635Z,1000.89
2016-04-13T10:32:37.150Z,1000.85
2016-04-13T10:35:55.723Z,1000.81
2016-04-13T10:39:01.698Z,1000.81
2016-04-13T10:42:13.612Z,1000.83
2016-04-13T10:45:26.964Z,1000.65
2016-04-13T10:48:40.534Z,1000.73
2016-04-13T10:51:54.044Z,1000.61
2016-04-13T10:54:58.678Z,1000.53
2016-04-13T10:58:29.765Z,1000.47
2016-04-13T11:01:23.641Z,1000.47
2016-04-13T11:04:33.188Z,1000.57
2016-04-13T11:10:54.912Z,1000.47
2016-04-13T11:14:08.172Z,1000.49
2016-04-13T11:17:20.682Z,1000.51
2016-04-13T11:20:31.321Z,1000.57
2016-04-13T11:23:42.785Z,1000.49
2016-04-13T11:26:57.076Z,1000.47
2016-04-13T11:30:01.570Z,1000.47
2016-04-13T11:33:14.843Z,1000.41
2016-04-13T11:36:26.745Z,1000.41
2016-04-13T11:39:38.643Z,1000.39
2016-04-13T11:42:54.323Z,1000.45
2016-04-13T11:45:59.018Z,1000.47
2016-04-13T11:49:12.512Z,1000.35
2016-04-13T11:52:25.709Z,1000.35
2016-04-13T11:55:39.312Z,1000.35
2016-04-13T11:58:53.022Z,1000.27
2016-04-13T12:01:57.797Z,1000.31
2016-04-13T12:05:10.945Z,1000.45
2016-04-13T12:08:21.597Z,1000.43
2016-04-13T12:11:35.137Z,1000.47
2016-04-13T12:14:52.552Z,1000.37
2016-04-13T12:17:55.997Z,1000.43
2016-04-13T12:21:10.536Z,1000.41
2016-04-13T12:24:23.828Z,1000.39
2016-04-13T12:27:37.430Z,1000.35
2016-04-13T12:30:52.970Z,1000.35
2016-04-13T12:33:57.821Z,1000.37
2016-04-13T12:37:11.078Z,1000.31
2016-04-13T12:40:24.418Z,1000.35
2016-04-13T12:43:38.051Z,1000.29
2016-04-13T12:46:55.325Z,1000.13
2016-04-13T18:29:44.678Z,1000.27
2016-04-13T18:32:55.218Z,1000.31
2016-04-13T18:36:08.319Z,1000.39
2016-04-13T18:39:25.202Z,1000.39
2016-04-13T18:42:29.367Z,1000.43
2016-04-13T18:45:42.269Z,1000.31
2016-04-13T18:48:55.447Z,1000.33
2016-04-13T18:52:05.596Z,1000.37
2016-04-13T18:55:21.121Z,1000.31
2016-04-13T18:58:25.504Z,1000.31
2016-04-13T19:01:38.232Z,1000.33
2016-04-13T19:04:48.912Z,1000.35
2016-04-13T19:08:01.234Z,1000.33
2016-04-13T19:11:18.272Z,1000.37
2016-04-13T19:14:26.828Z,1000.37
2016-04-13T19:17:30.945Z,1000.31
2016-04-13T19:20:44.097Z,1000.35
2016-04-13T19:23:54.245Z,1000.41
2016-04-13T19:27:03.940Z,1000.33
2016-04-13T19:30:18.246Z,1000.27
2016-04-13T19:33:26.566Z,1000.23
2016-04-13T19:36:30.934Z,1000.31
2016-04-13T19:39:44.085Z,1000.27
2016-04-13T19:42:57.249Z,1000.23
2016-04-13T19:46:07.945Z,1000.27
2016-04-13T19:49:23.047Z,1000.41
2016-04-13T19:52:27.189Z,1000.31
2016-04-13T19:55:39.749Z,1000.35
2016-04-13T19:58:52.538Z,1000.37
2016-04-13T20:02:02.733Z,1000.37
2016-04-13T20:05:18.851Z,1000.47
2016-04-13T20:08:26.897Z,1000.59
2016-04-13T20:11:30.879Z,1000.51
2016-04-13T20:14:43.256Z,1000.57
2016-04-13T20:17:55.845Z,1000.59
2016-04-13T20:21:08.557Z,1000.57
2016-04-13T20:24:24.995Z,1000.65
2016-04-13T20:27:28.946Z,1000.57
2016-04-13T20:30:42.179Z,1000.75
2016-04-13T20:33:55.188Z,1000.73
2016-04-13T20:37:07.979Z,1000.83
2016-04-13T20:40:24.768Z,1000.81
2016-04-13T20:43:28.885Z,1000.83
2016-04-13T20:46:41.428Z,1000.77
2016-04-13T20:49:54.201Z,1000.81
2016-04-13T20:53:07.116Z,1000.81
2016-04-13T20:56:22.592Z,1000.81
2016-04-13T20:59:26.694Z,1000.85
2016-04-13T21:02:39.046Z,1000.87
2016-04-13T21:05:50.994Z,1000.97
2016-04-13T21:09:01.487Z,1000.99
2016-04-13T21:12:18.479Z,1001.03
2016-04-13T21:15:26.393Z,1001.01
2016-04-13T21:18:30.183Z,1000.99
2016-04-13T21:21:42.990Z,1000.91
2016-04-13T21:24:55.748Z,1000.91
2016-04-13T21:28:07.522Z,1001.05
2016-04-13T21:31:25.202Z,1001.03
2016-04-13T21:34:29.241Z,1001.13
2016-04-13T21:37:38.375Z,1001.13
2016-04-13T21:40:50.963Z,1001.09
2016-04-13T21:44:03.690Z,1001.09
2016-04-13T21:47:20.370Z,1001.19
2016-04-13T21:50:24.706Z,1001.09
2016-04-13T21:53:37.511Z,1001.05
2016-04-13T21:56:50.413Z,1000.91
2016-04-13T22:00:03.202Z,1001.01
2016-04-13T22:03:18.632Z,1000.93
2016-04-13T22:06:26.766Z,1000.97
2016-04-13T22:09:30.820Z,1000.87
2016-04-13T22:12:43.797Z,1000.89
2016-04-13T22:15:56.371Z,1000.79
2016-04-13T22:19:08.847Z,1000.75
2016-04-13T22:22:25.637Z,1000.75
2016-04-13T22:25:30.581Z,1000.73
2016-04-13T22:28:41.700Z,1000.77
2016-04-13T22:31:52.726Z,1000.67
2016-04-13T22:35:05.266Z,1000.67
2016-04-13T22:38:22.054Z,1000.67
2016-04-13T22:41:26.047Z,1000.75
2016-04-13T22:44:37.085Z,1000.67
2016-04-13T22:47:49.941Z,1000.77
2016-04-13T22:51:02.090Z,1000.85
2016-04-13T22:54:12.659Z,1000.79
2016-04-13T22:57:24.965Z,1000.93
2016-04-13T23:00:36.942Z,1000.99
2016-04-13T23:03:49.468Z,1000.99
2016-04-13T23:07:01.897Z,1001.09
2016-04-13T23:10:14.719Z,1001.05
2016-04-13T23:13:27.633Z,1001.01
2016-04-13T23:16:40.640Z,1001.01
2016-04-13T23:19:53.057Z,1000.99
2016-04-13T23:23:05.565Z,1001.03
2016-04-13T23:26:22.058Z,1001.05
2016-04-13T23:29:25.878Z,1000.97
2016-04-13T23:32:38.308Z,1000.95
2016-04-13T23:35:50.856Z,1000.93
2016-04-13T23:39:01.896Z,1000.81
2016-04-13T23:42:14.466Z,1000.79
2016-04-13T23:45:27.193Z,1000.85
2016-04-13T23:48:38.920Z,1000.75
2016-04-13T23:51:52.586Z,1000.89
2016-04-13T23:55:05.406Z,1001.05
2016-04-13T23:58:22.181Z,1001.05
